createdAt,value
2018-01-25T00:00:24.276Z,8.80
2018-01-25T00:02:51.884Z,8.80
2018-01-25T00:05:20.265Z,8.80
2018-01-25T00:07:47.925Z,8.80
2018-01-25T00:10:23.829Z,8.80
2018-01-25T00:12:52.711Z,8.80
2018-01-25T00:15:20.320Z,8.70
2018-01-25T00:17:47.946Z,8.60
2018-01-25T00:20:15.602Z,8.60
2018-01-25T00:22:43.210Z,8.70
2018-01-25T00:25:10.854Z,8.70
2018-01-25T00:27:38.506Z,8.70
2018-01-25T00:30:06.868Z,8.60
2018-01-25T00:32:34.476Z,8.50
2018-01-25T00:35:02.889Z,8.60
2018-01-25T00:37:30.502Z,8.50
2018-01-25T00:39:58.110Z,8.50
2018-01-25T00:42:26.510Z,8.50
2018-01-25T00:44:54.876Z,8.50
2018-01-25T00:47:22.487Z,8.50
2018-01-25T00:49:50.126Z,8.50
2018-01-25T00:52:17.732Z,8.50
2018-01-25T00:54:45.340Z,8.40
2018-01-25T00:57:12.974Z,8.40
2018-01-25T00:59:40.582Z,8.40
2018-01-25T01:02:08.194Z,8.40
2018-01-25T01:04:35.836Z,8.50
2018-01-25T01:07:03.515Z,8.40
2018-01-25T01:09:31.125Z,8.50
2018-01-25T01:11:58.767Z,8.40
2018-01-25T01:14:26.377Z,8.40
2018-01-25T01:16:54.748Z,8.40
2018-01-25T01:19:22.387Z,8.30
2018-01-25T01:21:49.998Z,8.30
2018-01-25T01:24:17.602Z,8.30
2018-01-25T01:26:46.004Z,8.30
2018-01-25T01:29:13.616Z,8.30
2018-01-25T01:31:41.224Z,8.30
2018-01-25T01:34:09.631Z,8.30
2018-01-25T01:36:38.003Z,8.30
2018-01-25T01:39:05.610Z,8.20
2018-01-25T01:41:33.262Z,8.30
2018-01-25T01:44:01.651Z,8.40
2018-01-25T01:46:30.028Z,8.30
2018-01-25T01:48:57.674Z,8.30
2018-01-25T01:51:25.289Z,8.30
2018-01-25T01:53:53.673Z,8.40
2018-01-25T01:56:22.086Z,8.30
2018-01-25T01:58:50.457Z,8.30
2018-01-25T02:01:18.833Z,8.20
2018-01-25T02:03:46.476Z,8.20
2018-01-25T02:06:14.083Z,8.20
2018-01-25T02:08:41.700Z,8.20
2018-01-25T02:11:09.343Z,8.20
2018-01-25T02:13:36.952Z,8.20
2018-01-25T02:16:04.566Z,8.20
2018-01-25T02:18:32.197Z,8.10
2018-01-25T02:20:59.802Z,8.20
2018-01-25T02:23:27.396Z,8.10
2018-01-25T02:25:55.037Z,8.10
2018-01-25T02:28:22.645Z,8.00
2018-01-25T02:30:50.262Z,7.90
2018-01-25T02:33:17.907Z,7.80
2018-01-25T02:35:45.544Z,7.80
2018-01-25T02:38:13.150Z,7.70
2018-01-25T02:40:40.793Z,7.70
2018-01-25T02:43:08.401Z,7.70
2018-01-25T02:45:36.016Z,7.70
2018-01-25T02:48:03.661Z,7.70
2018-01-25T02:50:32.033Z,7.50
2018-01-25T02:52:59.641Z,7.50
2018-01-25T02:55:27.277Z,7.40
2018-01-25T02:57:54.877Z,7.30
2018-01-25T03:00:23.246Z,7.10
2018-01-25T03:02:50.890Z,7.00
2018-01-25T03:05:18.498Z,7.10
2018-01-25T03:07:46.101Z,6.90
2018-01-25T03:10:13.747Z,6.80
2018-01-25T03:12:41.364Z,6.80
2018-01-25T03:15:08.969Z,6.80
2018-01-25T03:17:36.628Z,6.70
2018-01-25T03:20:04.233Z,6.70
2018-01-25T03:22:31.836Z,6.60
2018-01-25T03:25:00.274Z,6.60
2018-01-25T03:27:27.881Z,6.50
2018-01-25T03:29:55.492Z,6.50
2018-01-25T03:32:23.142Z,6.60
2018-01-25T03:34:51.515Z,7.00
2018-01-25T03:37:19.117Z,6.90
2018-01-25T03:39:47.532Z,7.30
2018-01-25T03:42:15.142Z,7.30
2018-01-25T03:44:42.786Z,7.60
2018-01-25T03:47:10.425Z,7.60
2018-01-25T03:49:38.803Z,7.90
2018-01-25T03:52:06.418Z,7.90
2018-01-25T03:54:34.063Z,8.10
2018-01-25T03:57:02.479Z,8.00
2018-01-25T03:59:30.084Z,7.90
2018-01-25T04:01:57.756Z,7.90
2018-01-25T04:04:25.370Z,7.90
2018-01-25T04:06:52.977Z,7.90
2018-01-25T04:09:20.622Z,8.00
2018-01-25T04:11:49.001Z,7.90
2018-01-25T04:14:16.609Z,7.80
2018-01-25T04:16:44.253Z,7.70
2018-01-25T04:19:12.625Z,7.60
2018-01-25T04:21:40.235Z,7.50
2018-01-25T04:24:08.645Z,7.40
2018-01-25T04:26:36.257Z,7.40
2018-01-25T04:29:03.865Z,7.40
2018-01-25T04:31:32.274Z,7.30
2018-01-25T04:33:59.884Z,7.20
2018-01-25T04:36:27.489Z,7.20
2018-01-25T04:38:55.130Z,7.10
2018-01-25T04:41:22.738Z,7.10
2018-01-25T04:43:50.345Z,7.10
2018-01-25T04:46:17.979Z,7.30
2018-01-25T04:48:45.601Z,7.40
2018-01-25T04:51:13.218Z,7.50
2018-01-25T04:53:40.865Z,7.50
2018-01-25T04:56:08.476Z,7.60
2018-01-25T04:58:36.103Z,7.70
2018-01-25T05:01:03.750Z,7.90
2018-01-25T05:03:32.112Z,8.00
2018-01-25T05:05:59.726Z,8.00
2018-01-25T05:08:27.361Z,8.10
2018-01-25T05:10:54.968Z,8.20
2018-01-25T05:13:23.332Z,8.30
2018-01-25T05:15:50.974Z,8.30
2018-01-25T05:18:18.578Z,8.40
2018-01-25T05:20:46.185Z,8.40
2018-01-25T05:23:13.821Z,8.50
2018-01-25T05:25:41.437Z,8.50
2018-01-25T05:28:09.055Z,8.50
2018-01-25T05:30:36.700Z,8.50
2018-01-25T05:33:04.309Z,8.50
2018-01-25T05:35:31.912Z,8.50
2018-01-25T05:38:00.320Z,8.50
2018-01-25T05:40:28.692Z,8.40
2018-01-25T05:42:57.064Z,8.40
2018-01-25T05:45:24.699Z,8.40
2018-01-25T05:47:52.307Z,8.40
2018-01-25T05:50:19.904Z,8.40
2018-01-25T05:52:47.549Z,8.50
2018-01-25T05:55:15.268Z,8.50
2018-01-25T05:57:42.853Z,8.50
2018-01-25T06:00:10.505Z,8.50
2018-01-25T06:02:38.141Z,8.50
2018-01-25T06:05:05.753Z,8.60
2018-01-25T06:07:34.169Z,8.70
2018-01-25T06:10:01.790Z,8.60
2018-01-25T06:12:29.397Z,8.70
2018-01-25T06:14:57.817Z,8.80
2018-01-25T06:17:25.541Z,8.80
2018-01-25T06:19:53.150Z,8.80
2018-01-25T06:22:21.714Z,8.70
2018-01-25T06:24:49.340Z,8.70
2018-01-25T06:27:16.952Z,8.80
2018-01-25T06:29:44.598Z,8.70
2018-01-25T06:32:12.233Z,8.70
2018-01-25T06:34:40.618Z,8.80
2018-01-25T06:37:09.040Z,8.70
2018-01-25T06:39:36.653Z,8.70
2018-01-25T06:42:04.252Z,8.80
2018-01-25T06:44:31.895Z,8.70
2018-01-25T06:46:59.509Z,8.70
2018-01-25T06:49:27.877Z,8.70
2018-01-25T06:51:55.525Z,8.70
2018-01-25T06:54:23.129Z,8.80
2018-01-25T06:56:50.750Z,8.80
2018-01-25T06:59:18.401Z,8.80
2018-01-25T07:01:46.773Z,8.90
2018-01-25T07:04:14.801Z,8.90
2018-01-25T07:06:42.443Z,9.00
2018-01-25T07:09:10.818Z,9.20
2018-01-25T07:11:38.421Z,9.10
2018-01-25T07:14:06.837Z,9.10
2018-01-25T07:16:34.508Z,9.10
2018-01-25T07:19:02.109Z,9.10
2018-01-25T07:21:29.753Z,9.10
2018-01-25T07:23:57.360Z,9.10
2018-01-25T07:26:24.977Z,9.10
2018-01-25T07:28:53.390Z,9.00
2018-01-25T07:31:20.994Z,9.00
2018-01-25T07:33:48.597Z,9.00
2018-01-25T07:36:16.245Z,9.10
2018-01-25T07:38:43.845Z,9.10
2018-01-25T07:41:11.444Z,9.10
2018-01-25T07:43:39.850Z,9.10
2018-01-25T07:46:07.454Z,9.00
2018-01-25T07:48:35.069Z,9.10
2018-01-25T07:51:03.520Z,9.00
2018-01-25T07:53:31.117Z,9.00
2018-01-25T07:55:58.745Z,9.00
2018-01-25T07:58:26.444Z,8.90
2018-01-25T08:00:54.061Z,8.90
2018-01-25T08:03:22.448Z,8.80
2018-01-25T08:05:50.855Z,8.80
2018-01-25T08:08:19.234Z,8.90
2018-01-25T08:10:47.741Z,8.80
2018-01-25T08:13:21.804Z,8.90
2018-01-25T08:15:49.409Z,8.90
2018-01-25T08:18:17.016Z,8.80
2018-01-25T08:20:44.648Z,8.70
2018-01-25T08:23:12.255Z,8.70
2018-01-25T08:25:40.624Z,8.70
2018-01-25T08:28:08.277Z,8.70
2018-01-25T08:30:35.926Z,8.70
2018-01-25T08:33:03.556Z,8.80
2018-01-25T08:35:31.204Z,8.80
2018-01-25T08:37:58.801Z,8.90
2018-01-25T08:40:26.410Z,9.00
2018-01-25T08:42:54.049Z,9.10
2018-01-25T08:45:21.654Z,9.10
2018-01-25T08:47:49.254Z,9.20
2018-01-25T08:50:16.897Z,9.30
2018-01-25T08:52:44.509Z,9.30
2018-01-25T08:55:12.116Z,9.30
2018-01-25T08:57:39.758Z,9.40
2018-01-25T09:00:07.364Z,9.40
2018-01-25T09:02:34.977Z,9.40
2018-01-25T09:05:02.613Z,9.40
2018-01-25T09:07:30.229Z,9.50
2018-01-25T09:09:57.833Z,9.50
2018-01-25T09:12:25.472Z,9.50
2018-01-25T09:14:53.082Z,9.60
2018-01-25T09:17:20.693Z,9.70
2018-01-25T09:19:49.106Z,10.00
2018-01-25T09:22:16.814Z,9.90
2018-01-25T09:24:44.431Z,10.00
2018-01-25T09:27:12.845Z,10.10
2018-01-25T09:29:40.457Z,10.00
2018-01-25T09:32:08.060Z,10.20
2018-01-25T09:34:35.715Z,10.10
2018-01-25T09:37:03.320Z,10.20
2018-01-25T09:39:31.701Z,10.30
2018-01-25T09:41:59.345Z,10.30
2018-01-25T09:44:26.956Z,10.40
2018-01-25T09:46:55.340Z,10.40
2018-01-25T09:49:22.989Z,10.40
2018-01-25T09:51:50.592Z,10.40
2018-01-25T09:54:18.210Z,10.30
2018-01-25T09:56:45.873Z,10.30
2018-01-25T09:59:13.484Z,10.30
2018-01-25T10:01:41.097Z,10.30
2018-01-25T10:04:09.517Z,10.30
2018-01-25T10:06:37.132Z,10.30
2018-01-25T10:09:04.752Z,10.30
2018-01-25T10:11:32.405Z,10.40
2018-01-25T10:14:00.781Z,10.40
2018-01-25T10:16:28.388Z,10.30
2018-01-25T10:18:56.801Z,10.40
2018-01-25T10:21:24.425Z,10.40
2018-01-25T10:23:52.049Z,10.50
2018-01-25T10:26:19.743Z,10.50
2018-01-25T10:28:47.358Z,10.50
2018-01-25T10:31:15.733Z,10.60
2018-01-25T10:33:43.386Z,10.60
2018-01-25T10:36:10.996Z,10.70
2018-01-25T10:38:39.373Z,10.70
2018-01-25T10:41:07.017Z,10.60
2018-01-25T10:43:34.650Z,10.60
2018-01-25T10:46:03.031Z,10.50
2018-01-25T10:48:30.677Z,10.50
2018-01-25T10:50:58.284Z,10.60
2018-01-25T10:53:26.661Z,10.40
2018-01-25T10:55:54.302Z,10.30
2018-01-25T10:58:21.912Z,10.30
2018-01-25T11:00:55.286Z,10.40
2018-01-25T11:03:22.910Z,10.40
2018-01-25T11:05:50.533Z,10.30
2018-01-25T11:08:18.176Z,10.40
2018-01-25T11:10:45.796Z,10.40
2018-01-25T11:13:13.409Z,10.40
2018-01-25T11:15:41.817Z,10.40
2018-01-25T11:18:09.441Z,10.40
2018-01-25T11:20:37.054Z,10.40
2018-01-25T11:23:04.698Z,10.30
2018-01-25T11:25:32.317Z,10.30
2018-01-25T11:27:59.924Z,10.30
2018-01-25T11:30:27.582Z,10.30
2018-01-25T11:32:55.194Z,10.30
2018-01-25T11:35:22.813Z,10.40
2018-01-25T11:37:50.464Z,10.40
2018-01-25T11:40:18.074Z,10.50
2018-01-25T11:42:45.682Z,10.50
2018-01-25T11:45:13.333Z,10.70
2018-01-25T11:47:40.941Z,10.70
2018-01-25T11:50:08.562Z,10.80
2018-01-25T11:52:36.204Z,10.70
2018-01-25T11:55:04.581Z,10.60
2018-01-25T11:57:32.201Z,10.50
2018-01-25T11:59:59.860Z,10.50
2018-01-25T12:02:28.257Z,10.40
2018-01-25T12:04:56.632Z,10.50
2018-01-25T12:07:25.055Z,10.60
2018-01-25T12:09:52.672Z,10.60
2018-01-25T12:12:20.288Z,10.70
2018-01-25T12:14:48.713Z,10.90
2018-01-25T12:17:16.358Z,10.90
2018-01-25T12:19:43.980Z,10.90
2018-01-25T12:22:11.630Z,10.90
2018-01-25T12:24:39.257Z,10.90
2018-01-25T12:27:07.645Z,10.80
2018-01-25T12:29:35.305Z,10.70
2018-01-25T12:32:02.922Z,10.80
2018-01-25T12:34:31.298Z,10.70
2018-01-25T12:36:59.721Z,10.70
2018-01-25T12:39:27.337Z,10.60
2018-01-25T12:41:55.009Z,10.80
2018-01-25T12:44:22.681Z,10.70
2018-01-25T12:46:50.284Z,10.60
2018-01-25T12:49:18.661Z,10.60
2018-01-25T12:51:46.305Z,10.60
2018-01-25T12:54:13.913Z,10.70
2018-01-25T12:56:41.521Z,10.60
2018-01-25T12:59:09.168Z,10.60
2018-01-25T13:01:36.785Z,10.60
2018-01-25T13:04:04.397Z,10.40
2018-01-25T13:06:32.043Z,10.50
2018-01-25T13:08:59.656Z,10.40
2018-01-25T13:11:27.276Z,10.40
2018-01-25T13:13:54.932Z,10.50
2018-01-25T13:16:22.549Z,10.50
2018-01-25T13:18:50.164Z,10.30
2018-01-25T13:21:18.589Z,10.20
2018-01-25T13:23:46.204Z,10.20
2018-01-25T13:26:13.822Z,10.10
2018-01-25T13:28:41.476Z,10.00
2018-01-25T13:31:09.857Z,9.90
2018-01-25T13:33:42.627Z,9.90
2018-01-25T13:36:10.955Z,10.00
2018-01-25T13:38:39.337Z,9.90
2018-01-25T13:41:06.995Z,9.80
2018-01-25T13:43:34.608Z,9.80
2018-01-25T13:46:02.226Z,9.70
2018-01-25T13:48:29.887Z,9.60
2018-01-25T13:50:57.507Z,9.50
2018-01-25T13:53:25.125Z,9.50
2018-01-25T13:55:52.777Z,9.50
2018-01-25T13:58:21.153Z,9.50
2018-01-25T14:00:49.533Z,9.40
2018-01-25T14:03:17.189Z,9.40
2018-01-25T14:05:44.801Z,9.40
2018-01-25T14:08:13.181Z,9.40
2018-01-25T14:10:40.836Z,9.30
2018-01-25T14:13:08.456Z,9.40
2018-01-25T14:15:36.073Z,9.40
2018-01-25T14:18:03.725Z,9.30
2018-01-25T14:20:31.338Z,9.30
2018-01-25T14:22:58.961Z,9.30
2018-01-25T14:25:26.612Z,9.30
2018-01-25T14:27:55.055Z,9.50
2018-01-25T14:30:22.665Z,9.40
2018-01-25T14:32:51.085Z,9.40
2018-01-25T14:35:18.705Z,9.40
2018-01-25T14:37:46.316Z,9.40
2018-01-25T14:40:14.761Z,9.30
2018-01-25T14:42:42.374Z,9.30
2018-01-25T14:45:10.830Z,9.20
2018-01-25T14:47:38.481Z,9.20
2018-01-25T14:50:06.084Z,9.20
2018-01-25T14:52:33.753Z,9.30
2018-01-25T14:55:01.400Z,9.20
2018-01-25T14:57:29.100Z,9.20
2018-01-25T14:59:56.710Z,9.20
2018-01-25T15:02:24.352Z,9.20
2018-01-25T15:04:51.961Z,9.20
2018-01-25T15:07:20.361Z,9.20
2018-01-25T15:09:48.777Z,9.20
2018-01-25T15:12:16.393Z,9.10
2018-01-25T15:14:44.009Z,9.20
2018-01-25T15:17:12.423Z,9.10
2018-01-25T15:19:40.045Z,9.00
2018-01-25T15:22:07.668Z,9.00
2018-01-25T15:24:35.318Z,9.10
2018-01-25T15:27:03.696Z,9.10
2018-01-25T15:29:31.305Z,9.10
2018-01-25T15:31:58.981Z,9.10
2018-01-25T15:34:26.597Z,9.10
2018-01-25T15:36:54.204Z,9.00
2018-01-25T15:39:22.624Z,9.00
2018-01-25T15:41:50.229Z,9.00
2018-01-25T15:44:17.887Z,9.00
2018-01-25T15:46:45.547Z,9.00
2018-01-25T15:49:13.173Z,8.90
2018-01-25T15:51:40.797Z,8.90
2018-01-25T15:54:08.441Z,8.90
2018-01-25T15:56:36.821Z,8.80
2018-01-25T15:59:05.205Z,8.90
2018-01-25T16:01:32.857Z,8.80
2018-01-25T16:04:01.056Z,8.90
2018-01-25T16:06:28.669Z,8.80
2018-01-25T16:08:57.306Z,8.80
2018-01-25T16:11:25.261Z,8.80
2018-01-25T16:13:53.153Z,8.80
2018-01-25T16:16:21.598Z,8.80
2018-01-25T16:18:49.350Z,8.80
2018-01-25T16:21:17.085Z,8.80
2018-01-25T16:23:44.733Z,8.70
2018-01-25T16:26:13.653Z,8.70
2018-01-25T16:28:42.953Z,8.60
2018-01-25T16:31:11.813Z,8.50
2018-01-25T16:33:39.649Z,8.50
2018-01-25T16:36:08.168Z,8.60
2018-01-25T16:38:35.864Z,8.50
2018-01-25T16:41:04.120Z,8.40
2018-01-25T16:43:31.732Z,8.50
2018-01-25T16:46:01.459Z,8.50
2018-01-25T16:48:30.478Z,8.40
2018-01-25T16:51:00.139Z,8.40
2018-01-25T16:53:28.259Z,8.30
2018-01-25T16:55:57.697Z,8.30
2018-01-25T16:58:26.471Z,8.30
2018-01-25T17:00:54.788Z,8.30
2018-01-25T17:03:23.891Z,8.20
2018-01-25T17:05:51.502Z,8.30
2018-01-25T17:08:20.284Z,8.30
2018-01-25T17:10:48.840Z,8.20
2018-01-25T17:13:17.213Z,8.20
2018-01-25T17:15:44.876Z,8.20
2018-01-25T17:18:12.489Z,8.30
2018-01-25T17:20:40.101Z,8.20
2018-01-25T17:23:09.069Z,8.30
2018-01-25T17:25:36.684Z,8.30
2018-01-25T17:28:05.097Z,8.20
2018-01-25T17:30:34.137Z,8.20
2018-01-25T17:33:04.493Z,8.20
2018-01-25T17:35:33.174Z,8.10
2018-01-25T17:38:01.602Z,8.00
2018-01-25T17:40:29.343Z,8.00
2018-01-25T17:42:58.382Z,8.00
2018-01-25T17:45:27.047Z,8.00
2018-01-25T17:47:54.657Z,7.90
2018-01-25T17:50:25.894Z,7.90
2018-01-25T17:52:54.090Z,7.90
2018-01-25T17:55:24.203Z,7.90
2018-01-25T17:57:53.805Z,7.90
2018-01-25T18:00:22.515Z,7.90
2018-01-25T18:02:51.626Z,7.90
2018-01-25T18:05:19.830Z,7.90
2018-01-25T18:07:47.482Z,7.90
2018-01-25T18:10:15.705Z,7.80
2018-01-25T18:12:44.084Z,7.80
2018-01-25T18:15:11.989Z,7.90
2018-01-25T18:17:39.607Z,7.90
2018-01-25T18:20:07.257Z,7.90
2018-01-25T18:22:35.694Z,7.80
2018-01-25T18:25:03.315Z,7.80
2018-01-25T18:27:31.000Z,7.80
2018-01-25T18:29:58.616Z,7.90
2018-01-25T18:32:26.228Z,7.80
2018-01-25T18:34:54.645Z,7.80
2018-01-25T18:37:22.259Z,7.70
2018-01-25T18:39:49.871Z,7.80
2018-01-25T18:42:18.286Z,7.80
2018-01-25T18:44:45.902Z,7.80
2018-01-25T18:47:13.537Z,7.70
2018-01-25T18:49:41.186Z,7.80
2018-01-25T18:52:09.569Z,7.90
2018-01-25T18:54:39.154Z,7.90
2018-01-25T18:57:06.801Z,7.90
2018-01-25T18:59:34.421Z,7.90
2018-01-25T19:02:02.029Z,7.90
2018-01-25T19:04:30.536Z,8.00
2018-01-25T19:06:58.757Z,7.90
2018-01-25T19:09:26.373Z,8.00
2018-01-25T19:11:54.808Z,7.90
2018-01-25T19:14:22.565Z,7.90
2018-01-25T19:16:50.214Z,7.90
2018-01-25T19:19:18.697Z,8.00
2018-01-25T19:21:46.331Z,7.90
2018-01-25T19:24:13.953Z,7.90
2018-01-25T19:26:42.389Z,7.90
2018-01-25T19:29:10.643Z,7.80
2018-01-25T19:31:42.884Z,7.90
2018-01-25T19:34:10.492Z,7.80
2018-01-25T19:36:38.872Z,7.70
2018-01-25T19:39:06.529Z,7.70
2018-01-25T19:41:34.823Z,7.80
2018-01-25T19:44:06.621Z,7.70
2018-01-25T19:46:35.266Z,7.60
2018-01-25T19:49:02.879Z,7.60
2018-01-25T19:51:30.690Z,7.60
2018-01-25T19:53:58.870Z,7.60
2018-01-25T19:56:31.413Z,7.70
2018-01-25T19:58:59.037Z,7.70
2018-01-25T20:01:32.149Z,7.60
2018-01-25T20:03:59.791Z,7.60
2018-01-25T20:06:28.190Z,7.70
2018-01-25T20:08:56.608Z,7.60
2018-01-25T20:11:24.324Z,7.60
2018-01-25T20:13:56.405Z,7.60
2018-01-25T20:16:24.749Z,7.60
2018-01-25T20:18:52.361Z,7.60
2018-01-25T20:21:20.008Z,7.60
2018-01-25T20:23:47.621Z,7.60
2018-01-25T20:26:15.238Z,7.60
2018-01-25T20:28:43.654Z,7.50
2018-01-25T20:31:11.256Z,7.50
2018-01-25T20:33:39.296Z,7.60
2018-01-25T20:36:12.671Z,7.60
2018-01-25T20:38:42.766Z,7.60
2018-01-25T20:41:10.488Z,7.60
2018-01-25T20:43:38.193Z,7.60
2018-01-25T20:46:05.830Z,7.60
2018-01-25T20:48:33.448Z,7.50
2018-01-25T20:51:01.098Z,7.40
2018-01-25T20:53:29.476Z,7.40
2018-01-25T20:55:57.090Z,7.40
2018-01-25T20:58:24.741Z,7.50
2018-01-25T21:00:53.182Z,7.40
2018-01-25T21:03:24.393Z,7.40
2018-01-25T21:05:52.848Z,7.30
2018-01-25T21:08:21.478Z,7.30
2018-01-25T21:10:50.400Z,7.20
2018-01-25T21:13:31.648Z,7.20
2018-01-25T21:15:59.701Z,7.10
2018-01-25T21:18:27.547Z,7.20
2018-01-25T21:20:55.418Z,7.20
2018-01-25T21:23:23.225Z,7.00
2018-01-25T21:25:51.986Z,6.90
2018-01-25T21:28:21.916Z,6.90
2018-01-25T21:30:51.859Z,6.80
2018-01-25T21:33:21.245Z,6.80
2018-01-25T21:35:50.102Z,6.80
2018-01-25T21:38:19.062Z,6.60
2018-01-25T21:40:49.375Z,6.50
2018-01-25T21:43:21.625Z,6.30
2018-01-25T21:45:50.433Z,6.30
2018-01-25T21:48:19.359Z,6.40
2018-01-25T21:50:48.892Z,6.30
2018-01-25T21:53:18.118Z,6.20
2018-01-25T21:55:46.378Z,6.10
2018-01-25T21:58:14.020Z,6.10
2018-01-25T22:00:43.162Z,6.10
2018-01-25T22:03:10.818Z,6.00
2018-01-25T22:05:39.285Z,5.90
2018-01-25T22:08:08.233Z,5.80
2018-01-25T22:10:36.976Z,5.80
2018-01-25T22:13:05.517Z,5.80
2018-01-25T22:15:34.394Z,5.80
2018-01-25T22:18:02.910Z,5.70
2018-01-25T22:20:43.071Z,5.60
2018-01-25T22:23:12.136Z,5.60
2018-01-25T22:25:39.755Z,5.60
2018-01-25T22:28:07.409Z,5.40
2018-01-25T22:30:35.021Z,5.30
2018-01-25T22:33:02.648Z,5.20
2018-01-25T22:35:31.077Z,5.20
2018-01-25T22:37:58.697Z,5.20
2018-01-25T22:40:26.313Z,5.10
2018-01-25T22:42:53.962Z,5.10
2018-01-25T22:45:22.342Z,5.00
2018-01-25T22:47:50.725Z,5.00
2018-01-25T22:50:18.384Z,5.00
2018-01-25T22:52:46.004Z,5.00
2018-01-25T22:55:13.616Z,5.00
2018-01-25T22:57:41.266Z,5.00
2018-01-25T23:00:08.886Z,4.90
2018-01-25T23:02:36.509Z,4.90
2018-01-25T23:05:04.206Z,4.90
2018-01-25T23:07:31.821Z,4.80
2018-01-25T23:09:59.438Z,4.80
2018-01-25T23:12:27.093Z,4.80
2018-01-25T23:14:55.473Z,4.90
2018-01-25T23:17:23.853Z,4.80
2018-01-25T23:19:51.505Z,4.70
2018-01-25T23:22:19.121Z,4.80
2018-01-25T23:24:47.505Z,4.70
2018-01-25T23:27:15.934Z,4.60
2018-01-25T23:29:43.549Z,4.60
2018-01-25T23:32:11.177Z,4.60
2018-01-25T23:34:38.829Z,4.60
2018-01-25T23:37:07.210Z,4.50
2018-01-25T23:39:35.596Z,4.60
2018-01-25T23:42:03.241Z,4.50
2018-01-25T23:44:30.862Z,4.60
2018-01-25T23:46:59.241Z,4.60
2018-01-25T23:49:27.656Z,4.60
2018-01-25T23:51:55.269Z,4.50
2018-01-25T23:54:22.885Z,4.50
2018-01-25T23:56:51.311Z,4.50
2018-01-25T23:59:18.921Z,4.50
